Time;durP1;ratioP1;P1;durP2;ratioP2;P2;SDS_P1;SDS_P2;PMS_P1;PMS_P2;Temp;Humidity;BMP_temperature;BMP_pressure;BME280_temperature;BME280_humidity;BME280_pressure;Samples;Min_cycle;Max_cycle;Signal;HPM_P1;HPM_P2
2023/02/25 00:00:18;;;;;;;7.35;1.35;;;6.50;80.50;;;;;;5045676;28;20392;-60
2023/02/25 00:02:48;;;;;;;10.90;1.73;;;6.50;80.30;;;;;;5066808;28;20450;-59
2023/02/25 00:05:16;;;;;;;4.82;1.33;;;6.50;80.60;;;;;;5065169;28;20053;-61
2023/02/25 00:07:42;;;;;;;5.05;1.08;;;6.50;80.70;;;;;;5082139;28;20021;-60
2023/02/25 00:10:10;;;;;;;4.90;1.50;;;6.40;80.80;;;;;;5047749;28;20017;-60
2023/02/25 00:12:36;;;;;;;2.50;1.42;;;6.40;80.90;;;;;;5043470;28;20033;-61
2023/02/25 00:15:02;;;;;;;3.05;1.55;;;6.40;80.80;;;;;;5046474;28;20078;-61
2023/02/25 00:17:28;;;;;;;4.63;1.73;;;6.40;80.70;;;;;;5049036;28;20465;-60
2023/02/25 00:19:56;;;;;;;3.10;1.30;;;6.30;81.00;;;;;;5045583;28;20120;-60
2023/02/25 00:22:22;;;;;;;9.07;1.50;;;6.30;81.10;;;;;;5045719;28;20042;-60
2023/02/25 00:24:52;;;;;;;9.32;2.45;;;6.30;81.10;;;;;;5037247;28;20030;-60
2023/02/25 00:27:18;;;;;;;6.53;1.42;;;6.30;81.20;;;;;;5042640;28;20033;-61
2023/02/25 00:29:43;;;;;;;2.50;0.88;;;6.30;81.20;;;;;;5034662;28;20029;-59
2023/02/25 00:32:09;;;;;;;1.67;0.90;;;6.30;81.20;;;;;;5031262;28;20029;-59
2023/02/25 00:34:35;;;;;;;3.03;1.25;;;6.30;81.20;;;;;;5049029;28;20032;-61
2023/02/25 00:37:00;;;;;;;5.20;1.63;;;6.30;81.30;;;;;;5036578;28;20477;-65
2023/02/25 00:39:41;;;;;;;3.83;1.58;;;6.30;81.30;;;;;;5049764;28;20245;-65
2023/02/25 00:42:13;;;;;;;2.30;1.05;;;6.30;81.30;;;;;;5045276;28;20040;-63
2023/02/25 00:44:39;;;;;;;7.72;1.27;;;6.30;81.40;;;;;;5047842;28;20024;-65
2023/02/25 00:47:05;;;;;;;2.58;1.45;;;6.30;81.50;;;;;;5073015;28;20026;-65
2023/02/25 00:49:32;;;;;;;8.43;1.23;;;6.30;81.50;;;;;;5039626;28;20018;-64
2023/02/25 00:51:58;;;;;;;3.42;1.40;;;6.40;81.50;;;;;;5037382;28;20543;-64
2023/02/25 00:54:24;;;;;;;3.65;1.25;;;6.30;81.40;;;;;;5039055;28;20025;-65
2023/02/25 00:56:49;;;;;;;14.15;1.73;;;6.30;81.60;;;;;;5044967;28;20040;-66
2023/02/25 00:59:15;;;;;;;6.55;1.65;;;6.30;81.70;;;;;;5046946;28;20033;-60
2023/02/25 01:01:41;;;;;;;11.80;2.28;;;6.30;81.60;;;;;;5048911;28;20029;-60
2023/02/25 01:04:08;;;;;;;4.03;1.42;;;6.30;81.70;;;;;;5048870;28;20036;-61
2023/02/25 01:06:35;;;;;;;4.05;1.33;;;6.30;81.90;;;;;;5055773;28;20111;-64
2023/02/25 01:09:01;;;;;;;5.68;1.25;;;6.20;82.00;;;;;;5048725;28;20025;-64
2023/02/25 01:11:30;;;;;;;4.20;1.58;;;6.20;82.10;;;;;;5049573;28;20108;-65
2023/02/25 01:13:57;;;;;;;6.25;1.55;;;6.20;82.10;;;;;;5049427;28;20056;-59
2023/02/25 01:16:24;;;;;;;5.20;1.80;;;6.20;82.10;;;;;;5046073;28;20120;-60
2023/02/25 01:18:55;;;;;;;6.00;1.63;;;6.10;82.10;;;;;;5047080;28;20104;-59
2023/02/25 01:21:26;;;;;;;2.83;0.80;;;6.10;82.20;;;;;;5080181;28;20063;-59
2023/02/25 01:24:03;;;;;;;3.95;1.60;;;6.10;82.30;;;;;;5040554;28;20112;-58
2023/02/25 01:26:30;;;;;;;4.20;1.05;;;6.10;82.30;;;;;;5044692;28;20399;-58
2023/02/25 01:28:56;;;;;;;5.60;1.77;;;6.00;82.30;;;;;;5045903;28;20060;-58
2023/02/25 01:31:29;;;;;;;5.22;1.60;;;6.00;82.50;;;;;;5048822;28;20024;-58
2023/02/25 01:34:00;;;;;;;1.85;1.33;;;5.90;82.50;;;;;;5081502;28;20488;-59
2023/02/25 01:36:28;;;;;;;7.10;1.27;;;6.00;82.60;;;;;;5046164;28;20542;-58
2023/02/25 01:38:55;;;;;;;4.07;1.40;;;6.00;82.70;;;;;;5050970;28;20116;-58
2023/02/25 01:41:21;;;;;;;4.00;1.25;;;6.00;82.60;;;;;;5048707;28;20562;-59
2023/02/25 01:44:08;;;;;;;2.85;1.60;;;6.00;83.20;;;;;;5043630;28;20484;-57
2023/02/25 01:46:35;;;;;;;1.65;1.48;;;6.10;82.50;;;;;;5048227;28;20495;-64
2023/02/25 01:49:05;;;;;;;4.25;1.45;;;6.00;82.60;;;;;;5040012;28;20111;-64
2023/02/25 01:51:33;;;;;;;5.60;1.50;;;6.00;82.50;;;;;;5049095;28;20099;-64
2023/02/25 01:54:01;;;;;;;2.25;0.93;;;6.00;82.50;;;;;;5046400;28;20446;-64
2023/02/25 01:56:28;;;;;;;2.08;0.85;;;6.00;82.60;;;;;;5038998;28;20025;-64
2023/02/25 01:58:54;;;;;;;1.38;0.80;;;5.90;82.60;;;;;;5047341;28;20071;-64
2023/02/25 02:01:23;;;;;;;1.95;0.65;;;5.90;82.80;;;;;;5039444;28;20392;-64
2023/02/25 02:03:50;;;;;;;4.00;0.70;;;6.00;82.70;;;;;;5044772;28;20428;-64
2023/02/25 02:06:34;;;;;;;3.03;1.08;;;6.00;82.80;;;;;;5065411;28;20115;-64
2023/02/25 02:09:03;;;;;;;3.90;1.40;;;6.10;82.70;;;;;;5069092;28;20033;-64
2023/02/25 02:11:29;;;;;;;4.00;1.75;;;6.10;82.80;;;;;;5071819;28;20050;-63
2023/02/25 02:13:56;;;;;;;3.22;1.48;;;6.00;82.50;;;;;;5072993;28;20033;-63
2023/02/25 02:16:28;;;;;;;2.47;0.95;;;6.10;82.50;;;;;;5068040;28;20099;-63
2023/02/25 02:19:03;;;;;;;2.07;1.20;;;6.10;82.60;;;;;;5071680;28;20036;-63
2023/02/25 02:21:56;;;;;;;2.58;1.02;;;6.10;82.70;;;;;;5066353;28;20033;-64
2023/02/25 02:25:12;;;;;;;8.00;2.20;;;6.10;82.60;;;;;;5071421;28;20145;-65
2023/02/25 02:27:54;;;;;;;4.75;1.40;;;6.10;82.50;;;;;;5037443;28;20387;-61
2023/02/25 02:30:53;;;;;;;8.48;0.98;;;6.20;82.70;;;;;;5063622;28;20031;-62
2023/02/25 02:33:19;;;;;;;2.65;1.17;;;6.20;82.50;;;;;;5068427;28;20498;-62
2023/02/25 02:36:00;;;;;;;2.95;1.17;;;6.30;82.50;;;;;;5065567;28;20021;-62
2023/02/25 02:38:50;;;;;;;4.03;0.93;;;6.40;82.40;;;;;;5068325;28;20085;-62
2023/02/25 02:41:35;;;;;;;5.93;1.58;;;6.40;82.90;;;;;;5051080;28;20387;-62
2023/02/25 02:44:05;;;;;;;2.67;0.70;;;6.40;82.30;;;;;;5059345;28;20032;-62
2023/02/25 02:46:44;;;;;;;5.70;1.60;;;6.40;82.40;;;;;;5064440;28;20017;-61
2023/02/25 02:49:14;;;;;;;10.27;1.33;;;6.30;82.30;;;;;;5056684;28;20380;-61
2023/02/25 02:51:57;;;;;;;7.75;1.08;;;6.30;82.60;;;;;;5035997;28;20035;-65
2023/02/25 02:54:29;;;;;;;2.88;1.35;;;6.30;82.70;;;;;;5059489;28;20097;-64
2023/02/25 02:56:57;;;;;;;2.38;1.17;;;6.20;82.80;;;;;;5071371;28;20356;-65
2023/02/25 02:59:27;;;;;;;6.93;1.30;;;6.20;82.80;;;;;;5086601;28;20513;-65
2023/02/25 03:02:03;;;;;;;3.67;1.55;;;6.20;82.90;;;;;;5070938;28;20089;-64
2023/02/25 03:04:32;;;;;;;2.03;1.08;;;6.20;82.80;;;;;;5055224;28;20157;-65
2023/02/25 03:07:02;;;;;;;3.08;1.33;;;6.30;82.80;;;;;;5056277;28;20053;-64
2023/02/25 03:09:41;;;;;;;4.65;1.02;;;6.30;82.70;;;;;;5060269;28;20029;-64
2023/02/25 03:12:07;;;;;;;1.85;0.77;;;6.30;82.60;;;;;;5052001;28;20032;-59
2023/02/25 03:14:35;;;;;;;1.58;0.88;;;6.30;82.70;;;;;;5070692;28;20429;-59
2023/02/25 03:17:25;;;;;;;4.32;1.42;;;6.30;82.60;;;;;;5068708;28;20029;-60
2023/02/25 03:20:07;;;;;;;5.43;1.48;;;6.40;82.50;;;;;;5064994;28;20021;-59
2023/02/25 03:22:38;;;;;;;4.10;0.95;;;6.40;82.60;;;;;;5062092;28;20032;-59
2023/02/25 03:25:15;;;;;;;5.20;1.00;;;6.30;82.70;;;;;;5069212;28;20138;-59
2023/02/25 03:27:43;;;;;;;1.52;0.98;;;6.30;82.70;;;;;;5069968;28;20024;-59
2023/02/25 03:30:13;;;;;;;4.97;1.85;;;6.30;82.70;;;;;;5069695;28;20459;-59
2023/02/25 03:32:43;;;;;;;5.10;1.67;;;6.40;82.70;;;;;;5070608;28;20077;-59
2023/02/25 03:35:11;;;;;;;4.60;1.25;;;6.40;82.50;;;;;;5069984;28;20052;-59
2023/02/25 03:37:39;;;;;;;1.80;0.95;;;6.40;83.10;;;;;;5070758;28;20043;-59
2023/02/25 03:40:12;;;;;;;4.78;1.70;;;6.40;82.40;;;;;;5067172;28;20031;-63
2023/02/25 03:42:44;;;;;;;2.08;1.30;;;6.40;82.30;;;;;;5070294;28;20050;-64
2023/02/25 03:45:12;;;;;;;2.88;1.60;;;6.40;82.40;;;;;;5070506;28;20120;-63
2023/02/25 03:47:39;;;;;;;5.38;1.50;;;6.40;82.20;;;;;;5067894;28;20116;-58
2023/02/25 03:50:19;;;;;;;3.67;1.23;;;6.40;82.20;;;;;;5071386;28;20462;-63
2023/02/25 03:52:45;;;;;;;5.35;1.42;;;6.40;82.20;;;;;;5069837;28;20025;-63
2023/02/25 03:55:11;;;;;;;3.80;1.85;;;6.30;82.20;;;;;;5066315;28;20089;-58
2023/02/25 03:57:40;;;;;;;3.78;1.15;;;6.30;82.30;;;;;;5063301;28;20024;-58
2023/02/25 04:00:18;;;;;;;12.45;1.50;;;6.30;82.20;;;;;;5052587;28;20487;-59
2023/02/25 04:02:45;;;;;;;1.02;0.88;;;6.30;82.10;;;;;;5069879;28;20456;-58
2023/02/25 04:05:12;;;;;;;3.53;1.45;;;6.20;82.00;;;;;;5060855;28;20172;-60
2023/02/25 04:07:38;;;;;;;3.92;1.10;;;6.20;82.10;;;;;;5066352;28;20035;-60
2023/02/25 04:10:07;;;;;;;2.05;0.98;;;6.20;82.10;;;;;;5070070;28;20373;-64
2023/02/25 04:12:32;;;;;;;3.10;1.40;;;6.20;82.10;;;;;;5066918;28;20108;-64
2023/02/25 04:14:58;;;;;;;5.72;1.60;;;6.30;82.20;;;;;;5070991;28;20143;-64
2023/02/25 04:17:25;;;;;;;6.93;1.23;;;6.30;82.20;;;;;;5067342;28;20029;-67
2023/02/25 04:19:51;;;;;;;6.82;1.42;;;6.30;82.00;;;;;;5063576;28;20151;-65
2023/02/25 04:22:16;;;;;;;17.30;1.95;;;6.30;82.00;;;;;;5065175;28;20124;-65
2023/02/25 04:24:42;;;;;;;19.63;2.45;;;6.20;82.20;;;;;;5062993;28;20029;-64
2023/02/25 04:27:08;;;;;;;7.00;1.52;;;6.20;82.40;;;;;;5060649;28;20128;-65
2023/02/25 04:29:33;;;;;;;1.98;1.23;;;6.20;82.50;;;;;;5057278;28;20033;-65
2023/02/25 04:31:59;;;;;;;5.25;1.17;;;6.20;82.60;;;;;;5061950;28;20021;-66
2023/02/25 04:34:25;;;;;;;5.68;1.55;;;6.20;82.50;;;;;;5062229;28;20086;-65
2023/02/25 04:36:51;;;;;;;6.68;1.50;;;6.20;82.60;;;;;;5081001;28;20090;-62
2023/02/25 04:39:17;;;;;;;4.20;1.73;;;6.10;82.60;;;;;;5051053;28;20047;-63
2023/02/25 04:41:44;;;;;;;3.50;1.40;;;6.10;82.80;;;;;;5056133;28;20052;-63
2023/02/25 04:44:10;;;;;;;2.95;1.30;;;6.10;82.80;;;;;;5064128;28;20499;-63
2023/02/25 04:46:38;;;;;;;3.22;0.82;;;6.10;82.80;;;;;;5068881;28;20098;-63
2023/02/25 04:49:05;;;;;;;1.98;1.15;;;6.10;82.80;;;;;;5068175;28;20028;-63
2023/02/25 04:51:31;;;;;;;2.38;1.65;;;6.10;82.80;;;;;;5070887;28;20100;-66
2023/02/25 04:53:57;;;;;;;4.57;1.10;;;6.10;82.70;;;;;;5069170;28;20029;-65
2023/02/25 04:56:23;;;;;;;7.07;1.45;;;6.10;82.70;;;;;;5058473;28;20514;-60
2023/02/25 04:58:49;;;;;;;9.07;1.83;;;6.10;82.60;;;;;;5060443;28;20075;-65
2023/02/25 05:01:15;;;;;;;10.88;1.50;;;6.10;82.60;;;;;;5064291;28;20033;-66
2023/02/25 05:03:40;;;;;;;9.65;1.35;;;6.10;82.70;;;;;;5061812;28;20071;-65
2023/02/25 05:06:07;;;;;;;4.38;1.30;;;6.00;82.80;;;;;;5064235;28;20045;-65
2023/02/25 05:08:34;;;;;;;3.22;1.15;;;6.10;82.90;;;;;;5066983;28;20483;-65
2023/02/25 05:11:00;;;;;;;2.58;1.05;;;6.10;82.80;;;;;;5066202;28;20024;-65
2023/02/25 05:13:26;;;;;;;11.13;1.10;;;6.10;82.60;;;;;;5049231;28;20048;-66
2023/02/25 05:15:52;;;;;;;9.07;2.05;;;6.00;82.50;;;;;;5081667;28;20036;-65
2023/02/25 05:18:18;;;;;;;2.20;1.10;;;6.00;82.50;;;;;;5068848;28;20464;-65
2023/02/25 05:20:45;;;;;;;4.68;1.83;;;6.00;82.50;;;;;;5058823;28;20031;-65
2023/02/25 05:23:12;;;;;;;3.72;1.13;;;6.00;83.00;;;;;;5060884;28;20024;-66
2023/02/25 05:25:41;;;;;;;4.40;1.30;;;6.00;82.40;;;;;;5066081;28;20024;-65
2023/02/25 05:28:09;;;;;;;2.28;1.55;;;6.00;82.30;;;;;;5057524;28;20170;-65
2023/02/25 05:30:36;;;;;;;2.90;1.10;;;6.10;82.20;;;;;;5068437;28;20082;-64
2023/02/25 05:33:02;;;;;;;3.85;1.25;;;6.10;82.20;;;;;;5068935;28;20016;-65
2023/02/25 05:35:28;;;;;;;2.25;1.05;;;6.10;82.20;;;;;;5069270;28;20025;-64
2023/02/25 05:37:53;;;;;;;2.00;1.27;;;6.10;82.10;;;;;;5067969;28;20163;-64
2023/02/25 05:40:19;;;;;;;1.00;0.93;;;6.20;82.10;;;;;;5061165;28;20045;-59
2023/02/25 05:42:48;;;;;;;6.13;1.20;;;6.20;82.00;;;;;;5064407;28;20025;-64
2023/02/25 05:45:15;;;;;;;9.63;1.75;;;6.10;81.90;;;;;;5069193;28;20423;-65
2023/02/25 05:47:40;;;;;;;4.40;1.80;;;6.10;81.90;;;;;;5066020;28;20484;-65
2023/02/25 05:50:06;;;;;;;3.15;1.23;;;6.10;81.90;;;;;;5068959;28;20028;-64
2023/02/25 05:52:32;;;;;;;7.50;1.38;;;6.10;81.80;;;;;;5079343;28;20037;-59
2023/02/25 05:54:58;;;;;;;3.30;1.15;;;6.10;81.80;;;;;;5069045;28;20047;-59
2023/02/25 05:57:24;;;;;;;1.90;0.95;;;6.10;81.70;;;;;;5067373;28;20446;-58
2023/02/25 05:59:50;;;;;;;5.32;1.98;;;6.10;81.70;;;;;;5065625;28;20103;-59
2023/02/25 06:02:16;;;;;;;5.68;1.58;;;6.10;81.60;;;;;;5067743;28;20079;-59
2023/02/25 06:04:41;;;;;;;12.18;2.03;;;6.10;81.70;;;;;;5062767;28;20128;-58
2023/02/25 06:07:07;;;;;;;2.17;1.10;;;6.00;81.70;;;;;;5063256;28;20565;-61
2023/02/25 06:09:33;;;;;;;2.72;1.27;;;6.00;81.80;;;;;;5066937;28;20035;-60
2023/02/25 06:11:59;;;;;;;11.07;1.60;;;6.00;81.80;;;;;;5065538;28;20537;-60
2023/02/25 06:14:25;;;;;;;5.65;1.15;;;6.00;81.80;;;;;;5064481;28;20041;-60
2023/02/25 06:16:55;;;;;;;5.72;1.40;;;6.00;81.70;;;;;;5058944;28;20040;-65
2023/02/25 06:19:22;;;;;;;5.45;1.40;;;6.00;81.70;;;;;;5066729;28;20040;-63
2023/02/25 06:21:48;;;;;;;3.47;1.25;;;6.00;81.80;;;;;;5063208;28;20047;-65
2023/02/25 06:24:15;;;;;;;4.50;1.40;;;6.00;81.70;;;;;;5083585;28;20037;-67
2023/02/25 06:26:41;;;;;;;6.22;2.03;;;6.00;81.60;;;;;;5067464;28;20143;-65
2023/02/25 06:29:08;;;;;;;4.47;0.80;;;6.00;81.60;;;;;;5068960;28;20108;-62
2023/02/25 06:31:35;;;;;;;7.90;1.40;;;6.10;81.60;;;;;;5068184;28;20040;-62
2023/02/25 06:34:00;;;;;;;7.72;1.95;;;6.00;81.50;;;;;;5065978;28;20033;-62
2023/02/25 06:36:26;;;;;;;9.75;0.98;;;6.00;81.50;;;;;;5064526;28;20025;-62
2023/02/25 06:38:52;;;;;;;6.28;1.33;;;6.00;81.60;;;;;;5049609;28;20562;-63
2023/02/25 06:41:20;;;;;;;5.00;0.85;;;6.10;81.60;;;;;;5062597;28;20038;-62
2023/02/25 06:43:51;;;;;;;3.78;1.25;;;6.00;81.40;;;;;;5062866;28;20025;-62
2023/02/25 06:46:25;;;;;;;3.47;1.48;;;6.10;81.50;;;;;;5084113;28;20012;-63
2023/02/25 06:48:50;;;;;;;4.53;1.45;;;6.10;81.40;;;;;;5063894;28;20025;-62
2023/02/25 06:51:16;;;;;;;6.20;1.40;;;6.00;81.40;;;;;;5071959;28;20104;-63
2023/02/25 06:53:43;;;;;;;2.67;1.58;;;6.00;81.50;;;;;;5067911;28;20036;-62
2023/02/25 06:56:12;;;;;;;7.93;1.98;;;6.00;81.60;;;;;;5062679;28;20041;-59
2023/02/25 06:58:38;;;;;;;5.07;1.58;;;6.00;81.70;;;;;;5066922;28;20024;-59
2023/02/25 07:01:12;;;;;;;2.00;0.98;;;6.10;81.80;;;;;;5072251;28;20468;-60
2023/02/25 07:03:38;;;;;;;4.72;0.80;;;6.10;81.80;;;;;;5071291;28;20032;-66
2023/02/25 07:06:05;;;;;;;8.40;1.55;;;6.10;81.80;;;;;;5050153;28;20045;-60
2023/02/25 07:08:31;;;;;;;3.25;1.30;;;6.10;81.90;;;;;;5069487;28;20498;-60
2023/02/25 07:11:25;;;;;;;1.95;0.90;;;6.10;81.80;;;;;;5067025;28;20021;-59
2023/02/25 07:13:51;;;;;;;4.95;1.52;;;6.20;81.70;;;;;;5048328;28;20520;-64
2023/02/25 07:16:17;;;;;;;8.07;1.98;;;6.20;81.70;;;;;;5067165;28;20032;-67
2023/02/25 07:18:43;;;;;;;3.40;1.33;;;6.20;81.80;;;;;;5070208;28;20029;-67
2023/02/25 07:21:14;;;;;;;5.30;1.48;;;6.20;81.70;;;;;;5067447;28;20043;-66
2023/02/25 07:23:41;;;;;;;4.57;1.20;;;6.30;81.70;;;;;;5065592;28;20064;-65
2023/02/25 07:26:08;;;;;;;3.53;1.10;;;6.30;81.70;;;;;;5070377;28;20033;-65
2023/02/25 07:28:35;;;;;;;5.53;1.40;;;6.30;81.60;;;;;;5069174;28;20020;-65
2023/02/25 07:31:02;;;;;;;3.03;1.33;;;6.30;81.60;;;;;;5069166;28;20032;-65
2023/02/25 07:33:29;;;;;;;3.22;0.70;;;6.30;81.50;;;;;;5067020;28;20028;-65
2023/02/25 07:35:55;;;;;;;2.65;1.13;;;6.40;81.60;;;;;;5069515;28;20028;-65
2023/02/25 07:38:21;;;;;;;4.60;1.48;;;6.40;81.60;;;;;;5056406;28;20029;-60
2023/02/25 07:40:47;;;;;;;4.90;1.10;;;6.40;81.60;;;;;;5058890;28;20048;-66
2023/02/25 07:43:13;;;;;;;3.30;1.15;;;6.40;81.40;;;;;;5055081;28;20044;-66
2023/02/25 07:45:40;;;;;;;8.00;1.20;;;6.40;81.30;;;;;;5066892;28;20022;-66
2023/02/25 07:48:06;;;;;;;3.72;1.30;;;6.50;81.20;;;;;;5046949;28;20104;-66
2023/02/25 07:50:32;;;;;;;13.45;1.33;;;6.50;81.20;;;;;;5065890;28;20103;-65
2023/02/25 07:52:58;;;;;;;1.75;1.13;;;6.50;81.30;;;;;;5062762;28;20482;-65
2023/02/25 07:55:23;;;;;;;4.15;1.15;;;6.60;81.40;;;;;;5049442;28;20033;-65
2023/02/25 07:57:49;;;;;;;1.10;0.77;;;6.60;81.20;;;;;;5065077;28;20032;-66
2023/02/25 08:00:16;;;;;;;1.70;0.93;;;6.70;81.20;;;;;;5053984;28;20025;-66
2023/02/25 08:02:43;;;;;;;1.77;0.85;;;6.70;81.10;;;;;;5067737;28;20101;-66
2023/02/25 08:05:09;;;;;;;3.13;1.00;;;6.80;81.10;;;;;;5068455;28;20052;-65
2023/02/25 08:07:35;;;;;;;10.07;1.20;;;6.90;80.90;;;;;;5064543;28;20027;-66
2023/02/25 08:10:00;;;;;;;3.03;1.05;;;6.90;80.90;;;;;;5069033;28;20026;-65
2023/02/25 08:12:26;;;;;;;2.05;0.98;;;7.00;81.00;;;;;;5067641;28;20164;-66
2023/02/25 08:14:52;;;;;;;4.47;1.65;;;7.00;80.80;;;;;;5065061;28;20025;-66
2023/02/25 08:17:18;;;;;;;0.65;0.52;;;7.00;80.70;;;;;;5049623;28;20113;-65
2023/02/25 08:19:43;;;;;;;2.00;1.00;;;7.00;80.80;;;;;;5055689;28;20122;-65
2023/02/25 08:22:10;;;;;;;4.50;1.50;;;7.00;80.50;;;;;;5059752;28;20063;-65
2023/02/25 08:24:37;;;;;;;1.40;0.98;;;7.00;80.60;;;;;;5065578;28;20074;-65
2023/02/25 08:27:06;;;;;;;2.10;0.77;;;7.10;80.80;;;;;;5079854;28;20110;-59
2023/02/25 08:29:31;;;;;;;1.77;0.90;;;7.10;80.70;;;;;;5065904;28;20075;-60
2023/02/25 08:31:57;;;;;;;1.65;0.95;;;7.10;80.70;;;;;;5063086;28;20056;-60
2023/02/25 08:34:23;;;;;;;3.90;1.52;;;7.20;80.80;;;;;;5064036;28;20055;-60
2023/02/25 08:36:49;;;;;;;1.85;0.60;;;7.20;80.40;;;;;;5063092;28;20021;-60
2023/02/25 08:39:15;;;;;;;3.08;0.90;;;7.20;80.50;;;;;;5061092;28;20491;-60
2023/02/25 08:41:43;;;;;;;3.63;1.45;;;7.20;80.50;;;;;;5064094;28;20043;-60
2023/02/25 08:44:08;;;;;;;1.85;0.80;;;7.20;80.40;;;;;;5066544;28;20119;-65
2023/02/25 08:46:34;;;;;;;1.35;0.93;;;7.20;81.00;;;;;;5049123;28;20488;-66
2023/02/25 08:49:00;;;;;;;3.20;1.10;;;7.20;80.50;;;;;;5066117;28;20079;-65
2023/02/25 08:51:33;;;;;;;2.10;0.98;;;7.20;80.50;;;;;;5050919;28;20480;-65
2023/02/25 08:54:02;;;;;;;;;;;7.20;80.70;;;;;;5065488;28;20048;-65
2023/02/25 08:56:29;;;;;;;1.30;0.55;;;7.20;80.50;;;;;;5065744;28;19912;-65
2023/02/25 08:58:54;;;;;;;0.80;0.57;;;7.20;80.70;;;;;;5064323;28;20043;-66
2023/02/25 09:01:20;;;;;;;1.73;0.85;;;7.30;80.70;;;;;;5067081;28;20037;-58
2023/02/25 09:03:51;;;;;;;2.30;0.28;;;7.40;80.50;;;;;;5062084;28;20822;-60
2023/02/25 09:06:26;;;;;;;0.43;0.35;;;7.40;80.40;;;;;;5058159;28;20037;-60
2023/02/25 09:08:54;;;;;;;2.13;0.20;;;7.40;80.40;;;;;;5063036;28;20365;-61
2023/02/25 09:11:20;;;;;;;1.20;0.50;;;7.30;80.40;;;;;;5065514;28;20029;-58
2023/02/25 09:13:46;;;;;;;0.40;0.30;;;7.30;80.40;;;;;;5047827;28;20025;-59
2023/02/25 09:16:14;;;;;;;1.45;0.50;;;7.30;80.50;;;;;;5062712;28;20017;-58
2023/02/25 09:18:40;;;;;;;0.20;0.20;;;7.30;80.60;;;;;;5065041;28;20056;-59
2023/02/25 09:21:05;;;;;;;0.43;0.10;;;7.40;80.60;;;;;;5051353;28;20025;-58
2023/02/25 09:23:32;;;;;;;0.75;0.50;;;7.50;80.40;;;;;;5041046;28;20511;-59
2023/02/25 09:26:02;;;;;;;0.55;0.47;;;7.60;80.40;;;;;;5052629;28;20025;-58
2023/02/25 09:28:28;;;;;;;1.63;0.73;;;7.80;80.20;;;;;;5063606;28;20063;-58
2023/02/25 09:30:55;;;;;;;1.13;0.20;;;7.90;79.80;;;;;;5044117;28;20057;-58
2023/02/25 09:33:21;;;;;;;2.10;0.30;;;8.00;79.20;;;;;;5060915;28;20036;-58
2023/02/25 09:35:47;;;;;;;4.07;0.52;;;8.00;79.10;;;;;;5063242;28;20380;-59
2023/02/25 09:38:12;;;;;;;0.80;0.52;;;8.00;79.00;;;;;;5056201;28;20037;-64
2023/02/25 09:40:40;;;;;;;0.22;0.10;;;8.00;78.90;;;;;;5053963;28;20047;-64
2023/02/25 09:43:24;;;;;;;1.85;0.77;;;8.00;79.00;;;;;;5060153;28;20085;-64
2023/02/25 09:45:53;;;;;;;0.40;0.30;;;8.10;78.80;;;;;;5047137;28;20063;-64
2023/02/25 09:48:26;;;;;;;0.30;0.30;;;8.10;79.00;;;;;;5064499;28;20027;-64
2023/02/25 09:50:58;;;;;;;0.30;0.30;;;8.30;78.90;;;;;;5066225;28;20033;-64
2023/02/25 09:53:48;;;;;;;0.38;0.32;;;8.50;77.60;;;;;;5062458;28;20124;-64
2023/02/25 09:56:17;;;;;;;5.63;0.50;;;8.70;77.10;;;;;;5059961;28;20032;-67
2023/02/25 09:58:47;;;;;;;0.55;0.30;;;8.80;77.00;;;;;;5059224;28;20032;-67
2023/02/25 10:01:33;;;;;;;0.65;0.32;;;8.70;76.80;;;;;;5058829;28;20371;-65
2023/02/25 10:04:10;;;;;;;0.70;0.35;;;8.50;76.60;;;;;;5059872;28;20036;-66
2023/02/25 10:06:39;;;;;;;2.17;0.43;;;8.30;76.60;;;;;;5042539;28;20041;-66
2023/02/25 10:09:14;;;;;;;1.88;0.20;;;8.10;76.70;;;;;;5045176;28;20121;-66
2023/02/25 10:12:09;;;;;;;2.38;0.60;;;7.90;76.90;;;;;;5057012;28;20025;-66
2023/02/25 10:15:12;;;;;;;0.32;0.28;;;7.90;77.40;;;;;;5058880;28;20060;-66
2023/02/25 10:18:17;;;;;;;2.45;0.63;;;8.20;77.80;;;;;;5054237;28;20058;-59
2023/02/25 10:21:21;;;;;;;1.38;0.35;;;8.50;77.30;;;;;;5062522;28;20040;-61
2023/02/25 10:24:15;;;;;;;2.25;0.45;;;8.90;76.60;;;;;;5016151;28;20513;-61
2023/02/25 10:26:58;;;;;;;4.35;1.02;;;9.20;75.60;;;;;;5061487;28;20528;-61
2023/02/25 10:29:30;;;;;;;5.70;1.25;;;9.50;75.10;;;;;;5062182;28;20029;-62
2023/02/25 10:31:58;;;;;;;1.65;0.50;;;9.70;73.80;;;;;;5059307;28;20033;-66
2023/02/25 10:34:27;;;;;;;1.30;0.88;;;10.00;73.90;;;;;;5064216;28;20432;-67
2023/02/25 10:36:56;;;;;;;1.27;0.65;;;10.20;73.00;;;;;;5063709;28;20028;-62
2023/02/25 10:39:23;;;;;;;2.20;0.60;;;10.00;71.80;;;;;;5069021;28;20039;-62
2023/02/25 10:41:50;;;;;;;1.92;0.57;;;9.80;72.20;;;;;;5065500;28;20099;-65
2023/02/25 10:44:16;;;;;;;1.10;0.40;;;9.60;72.00;;;;;;5062224;28;20488;-60
2023/02/25 10:47:03;;;;;;;1.25;0.80;;;9.40;72.40;;;;;;5049262;28;20086;-58
2023/02/25 10:49:36;;;;;;;1.52;0.63;;;9.10;72.10;;;;;;5064676;28;20020;-66
2023/02/25 10:52:09;;;;;;;2.88;0.68;;;8.70;72.30;;;;;;5065590;28;20021;-65
2023/02/25 10:54:46;;;;;;;1.27;0.65;;;8.30;71.00;;;;;;5066620;28;20028;-65
2023/02/25 10:57:32;;;;;;;0.65;0.52;;;8.10;72.00;;;;;;5067100;28;20491;-65
2023/02/25 11:00:03;;;;;;;0.73;0.38;;;7.90;72.20;;;;;;5070906;28;20136;-65
2023/02/25 11:02:31;;;;;;;1.48;0.98;;;7.90;72.70;;;;;;5069884;28;20539;-65
2023/02/25 11:04:57;;;;;;;1.35;0.90;;;7.90;71.30;;;;;;5067553;28;20100;-60
2023/02/25 11:07:39;;;;;;;1.65;0.40;;;7.80;70.40;;;;;;5055925;28;20044;-59
2023/02/25 11:10:18;;;;;;;0.82;0.45;;;7.80;70.40;;;;;;5047246;28;20578;-59
2023/02/25 11:12:58;;;;;;;0.65;0.40;;;7.80;70.70;;;;;;5045207;28;20032;-60
2023/02/25 11:15:24;;;;;;;1.23;0.38;;;7.80;70.70;;;;;;5060847;28;20033;-59
2023/02/25 11:17:51;;;;;;;3.30;0.95;;;7.90;70.90;;;;;;5070035;28;20024;-59
2023/02/25 11:20:25;;;;;;;0.75;0.55;;;8.00;70.90;;;;;;5058631;28;20032;-66
2023/02/25 11:22:52;;;;;;;3.22;0.75;;;8.50;70.50;;;;;;5056320;28;20037;-65
2023/02/25 11:25:22;;;;;;;1.95;0.75;;;9.00;69.50;;;;;;5066150;28;20391;-66
2023/02/25 11:27:57;;;;;;;7.05;1.10;;;9.50;66.10;;;;;;5067781;28;20033;-65
2023/02/25 11:30:36;;;;;;;3.40;0.90;;;9.80;65.60;;;;;;5066362;28;20369;-65
2023/02/25 11:33:07;;;;;;;2.67;0.98;;;10.10;64.90;;;;;;5068438;28;20027;-66
2023/02/25 11:35:36;;;;;;;0.93;0.28;;;10.40;64.40;;;;;;5068235;28;20474;-65
2023/02/25 11:38:27;;;;;;;1.45;0.60;;;10.50;64.00;;;;;;5067998;28;20533;-65
2023/02/25 11:40:53;;;;;;;1.50;0.70;;;10.80;63.80;;;;;;5058059;28;20045;-66
2023/02/25 11:43:39;;;;;;;0.95;0.85;;;11.10;64.50;;;;;;5057275;28;20107;-66
2023/02/25 11:46:16;;;;;;;3.30;0.57;;;11.40;63.60;;;;;;5068531;28;20039;-65
2023/02/25 11:49:00;;;;;;;1.17;0.95;;;11.70;62.10;;;;;;5069027;28;20561;-58
2023/02/25 11:51:34;;;;;;;0.47;0.25;;;11.80;58.60;;;;;;5061004;28;20024;-59
2023/02/25 11:54:03;;;;;;;0.52;0.50;;;12.10;57.50;;;;;;5062189;28;20029;-65
2023/02/25 11:56:38;;;;;;;0.65;0.65;;;12.40;58.00;;;;;;5062679;28;20332;-65
2023/02/25 11:59:24;;;;;;;2.78;0.57;;;12.60;55.80;;;;;;5062166;28;20028;-66
2023/02/25 12:02:02;;;;;;;2.03;0.50;;;12.70;55.40;;;;;;5047958;28;20036;-68
2023/02/25 12:04:46;;;;;;;2.15;0.60;;;12.50;54.80;;;;;;5049459;28;20083;-68
2023/02/25 12:07:31;;;;;;;1.42;0.50;;;12.20;52.80;;;;;;5038720;28;20045;-66
2023/02/25 12:10:08;;;;;;;4.35;0.80;;;12.10;52.20;;;;;;5065674;28;20089;-67
2023/02/25 12:12:53;;;;;;;1.17;0.57;;;12.20;53.50;;;;;;5063538;28;20063;-67
2023/02/25 12:15:36;;;;;;;3.03;0.68;;;12.40;52.70;;;;;;5058025;28;20151;-66
2023/02/25 12:18:24;;;;;;;6.03;1.08;;;12.80;52.10;;;;;;5059631;28;20464;-62
2023/02/25 12:21:19;;;;;;;3.80;0.82;;;13.20;53.10;;;;;;5056056;28;20025;-62
2023/02/25 12:24:11;;;;;;;0.90;0.40;;;13.50;50.70;;;;;;5037840;28;20128;-62
2023/02/25 12:26:57;;;;;;;0.45;0.32;;;13.70;49.50;;;;;;5062475;28;20032;-61
2023/02/25 12:29:31;;;;;;;3.13;0.80;;;13.50;49.80;;;;;;5059102;28;20502;-62
2023/02/25 12:32:28;;;;;;;1.17;0.60;;;13.30;50.70;;;;;;5062913;28;20029;-61
2023/02/25 12:35:14;;;;;;;2.75;0.77;;;13.30;47.60;;;;;;5063959;28;20565;-61
2023/02/25 12:37:43;;;;;;;2.85;1.17;;;13.20;48.10;;;;;;5063812;28;20036;-61
2023/02/25 12:40:09;;;;;;;0.47;0.40;;;13.00;49.10;;;;;;5059205;28;20377;-61
2023/02/25 12:43:23;;;;;;;3.42;0.85;;;13.20;49.00;;;;;;5052377;28;20141;-58
2023/02/25 12:46:09;;;;;;;2.95;0.88;;;13.50;48.60;;;;;;5037478;28;20028;-61
2023/02/25 12:49:02;;;;;;;0.60;0.57;;;13.70;47.80;;;;;;5048154;28;20036;-58
2023/02/25 12:51:45;;;;;;;1.10;0.82;;;13.60;46.30;;;;;;5057986;28;20069;-58
2023/02/25 12:54:23;;;;;;;4.20;0.60;;;13.30;47.50;;;;;;5064443;28;20033;-59
2023/02/25 12:57:20;;;;;;;1.45;0.70;;;12.90;47.30;;;;;;5068004;28;20036;-59
2023/02/25 13:00:14;;;;;;;0.70;0.50;;;12.50;47.00;;;;;;5063959;28;20046;-58
2023/02/25 13:03:01;;;;;;;2.05;0.60;;;12.30;48.10;;;;;;5068564;28;20035;-59
2023/02/25 13:05:59;;;;;;;0.70;0.70;;;13.30;47.70;;;;;;5060052;28;20080;-60
2023/02/25 13:08:51;;;;;;;1.65;0.85;;;14.70;44.80;;;;;;5044931;28;20029;-59
2023/02/25 13:11:41;;;;;;;2.17;0.95;;;16.50;41.00;;;;;;5040438;28;20056;-67
2023/02/25 13:14:24;;;;;;;1.75;0.85;;;17.50;38.50;;;;;;5047076;28;20040;-66
2023/02/25 13:16:51;;;;;;;0.70;0.50;;;17.90;38.40;;;;;;5047089;28;20044;-65